Time;durP1;ratioP1;P1;durP2;ratioP2;P2;SDS_P1;SDS_P2;PMS_P1;PMS_P2;Temp;Humidity;BMP_temperature;BMP_pressure;BME280_temperature;BME280_humidity;BME280_pressure;Samples;Min_cycle;Max_cycle;Signal;HPM_P1;HPM_P2
2021/10/17 00:02:21;;;;;;;26.03;23.40;;;8.20;76.90;;;;;;5034987;28;20657;-82
2021/10/17 00:04:47;;;;;;;25.80;23.13;;;8.30;77.10;;;;;;5035133;28;20172;-81
2021/10/17 00:07:14;;;;;;;25.60;23.00;;;8.30;77.30;;;;;;5034729;28;20263;-82
2021/10/17 00:09:41;;;;;;;25.70;22.47;;;8.20;77.10;;;;;;5034934;28;20410;-82
2021/10/17 00:12:08;;;;;;;24.13;21.63;;;8.30;77.10;;;;;;5034900;28;20430;-82
2021/10/17 00:14:34;;;;;;;24.40;22.10;;;8.20;76.70;;;;;;5034961;28;20518;-80
2021/10/17 00:17:00;;;;;;;26.63;23.93;;;8.30;78.20;;;;;;5034698;28;20509;-81
2021/10/17 00:19:26;;;;;;;24.50;22.10;;;8.30;77.80;;;;;;5034953;28;20245;-82
2021/10/17 00:21:51;;;;;;;25.87;23.07;;;8.30;77.50;;;;;;5034954;28;20454;-81
2021/10/17 00:24:17;;;;;;;25.00;22.60;;;8.30;76.30;;;;;;5035289;28;20651;-81
2021/10/17 00:26:42;;;;;;;23.57;21.07;;;8.30;76.00;;;;;;5035458;28;20818;-81
2021/10/17 00:29:08;;;;;;;27.17;22.30;;;8.20;75.30;;;;;;5035277;28;20172;-81
2021/10/17 00:31:34;;;;;;;24.30;21.70;;;8.20;75.30;;;;;;5035016;28;20183;-81
2021/10/17 00:34:00;;;;;;;25.73;23.13;;;8.10;74.10;;;;;;5034939;28;20628;-81
2021/10/17 00:36:27;;;;;;;25.13;22.57;;;8.10;75.30;;;;;;5034603;28;20184;-82
2021/10/17 00:38:53;;;;;;;25.70;23.30;;;8.10;75.40;;;;;;5034557;28;20664;-82
2021/10/17 00:41:19;;;;;;;23.50;21.30;;;8.00;76.00;;;;;;5034555;28;20512;-82
2021/10/17 00:43:45;;;;;;;25.07;22.50;;;8.00;75.50;;;;;;5034563;28;21167;-82
2021/10/17 00:46:22;;;;;;;25.43;22.93;;;8.10;76.50;;;;;;5034442;28;20422;-82
2021/10/17 00:48:48;;;;;;;25.17;22.63;;;8.10;75.70;;;;;;5034828;28;20414;-82
2021/10/17 00:51:15;;;;;;;24.77;22.27;;;8.10;76.40;;;;;;5034425;28;20407;-82
2021/10/17 00:53:41;;;;;;;28.33;25.27;;;8.10;77.30;;;;;;5034309;28;20434;-82
2021/10/17 00:56:07;;;;;;;28.53;25.00;;;8.10;76.10;;;;;;5034572;28;20774;-82
2021/10/17 00:58:33;;;;;;;26.30;23.50;;;8.10;76.60;;;;;;5034201;28;20414;-82
2021/10/17 01:00:59;;;;;;;26.10;23.50;;;8.10;76.50;;;;;;5052063;28;20411;-82
2021/10/17 01:03:26;;;;;;;25.03;22.63;;;8.10;76.20;;;;;;5034332;28;20176;-82
2021/10/17 01:05:53;;;;;;;26.53;23.80;;;8.00;75.90;;;;;;5034239;28;20187;-82
2021/10/17 01:08:19;;;;;;;24.20;21.90;;;8.00;76.40;;;;;;5033979;28;20442;-82
2021/10/17 01:10:45;;;;;;;27.80;24.80;;;8.00;77.30;;;;;;5034358;28;20456;-82
2021/10/17 01:13:18;;;;;;;26.13;23.40;;;8.00;76.80;;;;;;5034182;28;20434;-82
2021/10/17 01:15:49;;;;;;;27.30;24.40;;;8.00;77.10;;;;;;5034179;28;20426;-81
2021/10/17 01:18:14;;;;;;;27.77;23.07;;;8.00;76.60;;;;;;5034051;28;20760;-81
2021/10/17 01:20:40;;;;;;;26.53;23.93;;;8.00;77.10;;;;;;5036201;28;20792;-81
2021/10/17 01:23:06;;;;;;;25.90;22.93;;;8.00;76.80;;;;;;5038120;28;20660;-81
2021/10/17 01:25:32;;;;;;;24.70;22.30;;;8.00;75.40;;;;;;5038082;28;20561;-81
2021/10/17 01:27:57;;;;;;;26.83;23.97;;;8.00;76.50;;;;;;5038071;28;20421;-81
2021/10/17 01:30:23;;;;;;;25.40;22.90;;;8.00;76.60;;;;;;5038089;28;20217;-81
2021/10/17 01:32:49;;;;;;;25.60;22.80;;;8.00;76.20;;;;;;5038455;28;20227;-81
2021/10/17 01:35:14;;;;;;;27.27;24.30;;;7.90;76.30;;;;;;5038079;28;20300;-82
2021/10/17 01:37:41;;;;;;;26.20;23.57;;;7.80;75.40;;;;;;5055664;28;20633;-82
2021/10/17 01:40:07;;;;;;;26.23;23.63;;;7.90;76.00;;;;;;5037778;28;20180;-81
2021/10/17 01:42:33;;;;;;;24.40;21.90;;;8.00;76.50;;;;;;5037823;28;20458;-82
2021/10/17 01:44:58;;;;;;;25.33;22.83;;;8.00;74.90;;;;;;5038111;28;20422;-81
2021/10/17 01:47:24;;;;;;;24.83;22.50;;;7.90;75.20;;;;;;5037604;28;20221;-81
2021/10/17 01:49:50;;;;;;;23.80;21.37;;;7.90;75.30;;;;;;5037726;28;20171;-82
2021/10/17 01:52:16;;;;;;;24.97;22.33;;;7.90;74.80;;;;;;5038003;28;20176;-81
2021/10/17 01:54:42;;;;;;;24.83;22.30;;;7.90;75.20;;;;;;5037607;28;20214;-81
2021/10/17 01:57:08;;;;;;;23.40;21.10;;;7.90;74.60;;;;;;5037548;28;20450;-81
2021/10/17 01:59:33;;;;;;;23.50;20.97;;;7.90;74.90;;;;;;5038066;28;20179;-84
2021/10/17 02:01:59;;;;;;;25.57;22.97;;;7.90;74.30;;;;;;5038232;28;20458;-85
2021/10/17 02:04:25;;;;;;;23.87;21.57;;;7.80;74.20;;;;;;5038660;28;20194;-85
2021/10/17 02:06:50;;;;;;;26.00;21.63;;;7.80;75.20;;;;;;5037923;28;20172;-85
2021/10/17 02:09:16;;;;;;;23.80;21.33;;;7.80;74.60;;;;;;5038076;28;20180;-84
2021/10/17 02:11:42;;;;;;;23.93;21.50;;;7.80;74.90;;;;;;5055876;28;20180;-86
2021/10/17 02:14:08;;;;;;;23.13;20.83;;;7.70;74.50;;;;;;5038078;28;20982;-86
2021/10/17 02:16:33;;;;;;;23.50;21.00;;;7.60;74.10;;;;;;5037611;28;20228;-85
2021/10/17 02:18:59;;;;;;;22.20;19.93;;;7.70;74.80;;;;;;5037834;28;20225;-84
2021/10/17 02:21:25;;;;;;;22.83;20.53;;;7.70;74.80;;;;;;5037479;28;20211;-85
2021/10/17 02:23:50;;;;;;;24.73;22.33;;;7.70;74.40;;;;;;5037973;28;20178;-84
2021/10/17 02:26:16;;;;;;;24.80;22.20;;;7.80;73.50;;;;;;5037534;28;20221;-85
2021/10/17 02:28:42;;;;;;;24.17;21.83;;;7.90;73.30;;;;;;5036895;28;20176;-84
2021/10/17 02:31:07;;;;;;;24.30;21.80;;;7.90;72.90;;;;;;5036553;28;20207;-86
2021/10/17 02:33:33;;;;;;;22.93;20.60;;;7.80;72.50;;;;;;5037157;28;20179;-86
2021/10/17 02:36:02;;;;;;;22.93;20.80;;;7.90;73.40;;;;;;5036888;28;20178;-86
2021/10/17 02:38:29;;;;;;;25.73;23.07;;;7.90;73.00;;;;;;5020856;28;20227;-86
2021/10/17 02:40:55;;;;;;;24.70;22.27;;;7.80;72.50;;;;;;5037433;28;20822;-85
2021/10/17 02:43:21;;;;;;;23.63;21.23;;;7.90;73.50;;;;;;5037276;28;20610;-84
2021/10/17 02:45:47;;;;;;;24.13;21.50;;;7.90;73.10;;;;;;5037524;28;20425;-85
2021/10/17 02:48:37;;;;;;;23.90;21.67;;;7.90;73.20;;;;;;5037549;28;20180;-84
2021/10/17 02:51:03;;;;;;;22.87;20.47;;;7.90;72.20;;;;;;5038949;28;20191;-81
2021/10/17 02:53:28;;;;;;;22.53;20.13;;;7.80;72.40;;;;;;5036814;28;20930;-82
2021/10/17 02:55:54;;;;;;;22.23;20.13;;;7.90;73.20;;;;;;5036198;28;20186;-82
2021/10/17 02:58:20;;;;;;;22.57;20.30;;;7.90;73.00;;;;;;5036081;28;20211;-81
2021/10/17 03:00:45;;;;;;;21.00;18.90;;;7.90;72.80;;;;;;5036120;28;20254;-81
2021/10/17 03:03:11;;;;;;;21.30;19.23;;;8.00;73.00;;;;;;5036097;28;20208;-82
2021/10/17 03:05:36;;;;;;;22.40;20.10;;;8.00;72.70;;;;;;5035911;28;20207;-81
2021/10/17 03:08:02;;;;;;;21.13;19.13;;;8.00;72.80;;;;;;5035821;28;20176;-81
2021/10/17 03:10:28;;;;;;;22.00;19.80;;;8.00;72.30;;;;;;5035961;28;20172;-82
2021/10/17 03:12:53;;;;;;;22.57;20.27;;;8.00;72.40;;;;;;5035835;28;20206;-82
2021/10/17 03:15:19;;;;;;;22.13;18.80;;;8.00;72.20;;;;;;5036100;28;20176;-82
2021/10/17 03:17:45;;;;;;;21.20;19.20;;;8.00;73.00;;;;;;5035526;28;20180;-82
2021/10/17 03:20:11;;;;;;;21.87;19.60;;;8.00;72.20;;;;;;5035637;28;20266;-82
2021/10/17 03:22:38;;;;;;;21.43;19.30;;;8.00;72.00;;;;;;5035560;28;20203;-82
2021/10/17 03:25:04;;;;;;;21.50;19.50;;;7.90;71.70;;;;;;5035774;28;20928;-82
2021/10/17 03:27:30;;;;;;;21.17;19.13;;;8.00;71.90;;;;;;5035382;28;20914;-82
2021/10/17 03:29:55;;;;;;;21.00;19.00;;;8.00;71.80;;;;;;5035639;28;20415;-81
2021/10/17 03:32:21;;;;;;;22.17;20.07;;;8.00;72.50;;;;;;5035671;28;20191;-81
2021/10/17 03:34:47;;;;;;;22.80;20.47;;;7.90;71.80;;;;;;5035283;28;20237;-82
2021/10/17 03:37:12;;;;;;;22.60;20.30;;;7.90;72.70;;;;;;5035101;28;20479;-82
2021/10/17 03:39:38;;;;;;;22.60;20.30;;;7.90;72.10;;;;;;5035432;28;20202;-82
2021/10/17 03:42:04;;;;;;;22.97;20.67;;;7.90;72.00;;;;;;5034862;28;20213;-82
2021/10/17 03:44:29;;;;;;;23.10;20.90;;;7.80;72.30;;;;;;5035174;28;20186;-81
2021/10/17 03:46:55;;;;;;;23.23;21.07;;;7.80;73.60;;;;;;5034965;28;20187;-81
2021/10/17 03:49:21;;;;;;;21.93;19.87;;;7.90;73.50;;;;;;5035012;28;20180;-81
2021/10/17 03:51:47;;;;;;;22.00;19.90;;;7.90;73.10;;;;;;5035079;28;20191;-81
2021/10/17 03:54:12;;;;;;;22.17;19.97;;;7.90;72.70;;;;;;5035129;28;20237;-81
2021/10/17 03:56:38;;;;;;;22.40;20.30;;;7.90;73.20;;;;;;5034887;28;20195;-81
2021/10/17 03:59:03;;;;;;;22.50;20.30;;;7.90;73.00;;;;;;5051774;28;20539;-81
2021/10/17 04:01:30;;;;;;;22.60;20.40;;;7.80;73.60;;;;;;5034859;28;20562;-81
2021/10/17 04:03:56;;;;;;;22.83;20.30;;;7.80;73.40;;;;;;5034857;28;20278;-81
2021/10/17 04:06:22;;;;;;;22.27;20.07;;;7.80;73.70;;;;;;5034737;28;20433;-82
2021/10/17 04:08:48;;;;;;;23.13;20.83;;;7.80;73.70;;;;;;5034761;28;20506;-81
2021/10/17 04:11:14;;;;;;;22.30;20.00;;;7.80;73.20;;;;;;5034750;28;20179;-81
2021/10/17 04:13:39;;;;;;;22.50;20.10;;;7.80;73.50;;;;;;5052599;28;21022;-81
2021/10/17 04:16:06;;;;;;;23.13;20.90;;;7.80;73.00;;;;;;5034635;28;20198;-82
2021/10/17 04:18:32;;;;;;;22.70;20.40;;;7.80;74.30;;;;;;5034425;28;20199;-82
2021/10/17 04:20:58;;;;;;;21.77;19.60;;;7.80;74.50;;;;;;5034644;28;20415;-82
2021/10/17 04:23:25;;;;;;;20.40;18.50;;;7.80;73.70;;;;;;5034546;28;20465;-82
2021/10/17 04:25:51;;;;;;;21.43;19.33;;;7.80;73.60;;;;;;5052497;28;20840;-82
2021/10/17 04:28:16;;;;;;;19.90;18.00;;;7.80;73.90;;;;;;5034434;28;20556;-80
2021/10/17 04:30:42;;;;;;;20.33;18.43;;;7.80;74.10;;;;;;5034510;28;20587;-82
2021/10/17 04:33:08;;;;;;;21.10;18.90;;;7.80;74.00;;;;;;5052035;28;20636;-82
2021/10/17 04:35:38;;;;;;;22.10;20.00;;;7.70;74.10;;;;;;5034734;28;20179;-82
2021/10/17 04:38:05;;;;;;;20.40;18.50;;;7.80;73.00;;;;;;5034109;28;20180;-83
2021/10/17 04:40:32;;;;;;;20.10;18.10;;;7.80;72.30;;;;;;5034450;28;20429;-82
2021/10/17 04:42:59;;;;;;;22.70;20.60;;;7.80;72.50;;;;;;5034116;28;20465;-81
2021/10/17 04:45:25;;;;;;;21.17;19.17;;;7.80;72.80;;;;;;5052232;28;20498;-82
2021/10/17 04:47:51;;;;;;;21.60;19.50;;;7.80;72.40;;;;;;5033851;28;20808;-80
2021/10/17 04:50:16;;;;;;;21.80;19.77;;;7.80;73.00;;;;;;5052274;28;20251;-81
2021/10/17 04:52:42;;;;;;;22.53;19.57;;;7.80;73.00;;;;;;5034111;28;20628;-81
2021/10/17 04:55:08;;;;;;;21.93;19.60;;;7.90;73.40;;;;;;5034328;28;20549;-81
2021/10/17 04:57:35;;;;;;;19.47;17.57;;;7.80;73.20;;;;;;5034015;28;20184;-81
2021/10/17 05:00:02;;;;;;;21.03;19.03;;;7.90;73.20;;;;;;5034127;28;20923;-81
2021/10/17 05:02:27;;;;;;;20.50;18.50;;;7.90;73.60;;;;;;5033788;28;20475;-81
2021/10/17 05:04:53;;;;;;;21.03;18.83;;;7.90;72.60;;;;;;5034173;28;20430;-81
2021/10/17 05:07:19;;;;;;;21.27;19.07;;;7.90;73.10;;;;;;5033806;28;20194;-82
2021/10/17 05:09:44;;;;;;;20.00;18.27;;;7.80;72.50;;;;;;5034127;28;20193;-81
2021/10/17 05:12:10;;;;;;;19.93;18.13;;;7.90;72.60;;;;;;5033929;28;20284;-81
2021/10/17 05:14:35;;;;;;;21.50;19.33;;;7.80;72.30;;;;;;5034189;28;20641;-81
2021/10/17 05:17:01;;;;;;;18.80;16.83;;;7.90;72.40;;;;;;5051469;28;20212;-81
2021/10/17 05:19:27;;;;;;;19.00;17.00;;;7.90;72.40;;;;;;5034088;28;20180;-81
2021/10/17 05:21:52;;;;;;;19.10;17.40;;;7.90;72.40;;;;;;5033909;28;20231;-81
2021/10/17 05:24:18;;;;;;;18.87;17.23;;;7.80;72.50;;;;;;5034204;28;20176;-81
2021/10/17 05:26:44;;;;;;;19.73;17.87;;;7.80;72.60;;;;;;5034162;28;20588;-82
2021/10/17 05:29:09;;;;;;;19.50;17.60;;;7.80;73.20;;;;;;5034377;28;20180;-81
2021/10/17 05:31:35;;;;;;;21.00;18.98;;;7.80;73.30;;;;;;5033462;28;20928;-81
2021/10/17 05:34:00;;;;;;;18.73;17.03;;;7.80;72.70;;;;;;5034165;28;20183;-80
2021/10/17 05:36:26;;;;;;;19.03;17.23;;;7.80;73.20;;;;;;5034013;28;20761;-81
2021/10/17 05:38:52;;;;;;;19.60;17.80;;;7.90;72.30;;;;;;5051783;28;20207;-81
2021/10/17 05:41:17;;;;;;;16.70;15.20;;;7.90;71.80;;;;;;5033947;28;20233;-81
2021/10/17 05:43:43;;;;;;;16.90;15.43;;;7.90;72.10;;;;;;5033872;28;20175;-81
2021/10/17 05:46:09;;;;;;;17.67;15.97;;;7.90;72.20;;;;;;5033596;28;20178;-82
2021/10/17 05:48:34;;;;;;;18.23;16.63;;;7.90;72.80;;;;;;5033578;28;20263;-81
2021/10/17 05:51:00;;;;;;;17.63;16.07;;;7.80;71.70;;;;;;5033678;28;20507;-81
2021/10/17 05:53:26;;;;;;;17.60;16.00;;;7.70;71.50;;;;;;5033818;28;20215;-81
2021/10/17 05:55:51;;;;;;;17.07;15.30;;;7.70;72.20;;;;;;5033754;28;20183;-81
2021/10/17 05:58:17;;;;;;;17.33;15.83;;;7.60;72.40;;;;;;5033453;28;20229;-81
2021/10/17 06:00:43;;;;;;;16.80;15.20;;;7.60;73.10;;;;;;5033467;28;20690;-81
2021/10/17 06:03:08;;;;;;;19.00;17.20;;;7.70;72.50;;;;;;5033421;28;20629;-81
2021/10/17 06:05:34;;;;;;;17.90;16.30;;;7.70;71.60;;;;;;5034086;28;20418;-81
2021/10/17 06:08:00;;;;;;;19.20;17.40;;;7.70;71.80;;;;;;5036935;28;20183;-81
2021/10/17 06:10:26;;;;;;;17.73;16.13;;;7.60;71.70;;;;;;5037211;28;20172;-81
2021/10/17 06:12:52;;;;;;;18.00;16.40;;;7.70;72.30;;;;;;5036913;28;20850;-81
2021/10/17 06:15:18;;;;;;;20.03;16.70;;;7.70;71.60;;;;;;5037244;28;20406;-81
2021/10/17 06:17:44;;;;;;;19.30;17.30;;;7.80;71.30;;;;;;5036821;28;20216;-81
2021/10/17 06:20:10;;;;;;;17.60;15.80;;;7.80;70.20;;;;;;5037081;28;20263;-81
2021/10/17 06:22:36;;;;;;;19.00;17.17;;;7.80;70.20;;;;;;5036758;28;20457;-81
2021/10/17 06:25:02;;;;;;;18.63;16.83;;;7.80;70.20;;;;;;5036949;28;20419;-81
2021/10/17 06:27:28;;;;;;;18.57;16.90;;;7.70;70.10;;;;;;5036689;28;20221;-81
2021/10/17 06:29:54;;;;;;;20.03;18.10;;;7.60;70.80;;;;;;5036666;28;20407;-81
2021/10/17 06:32:19;;;;;;;19.73;17.77;;;7.70;71.10;;;;;;5036767;28;20176;-81
2021/10/17 06:34:45;;;;;;;18.07;16.40;;;7.80;70.90;;;;;;5036709;28;20211;-81
2021/10/17 06:37:11;;;;;;;17.80;16.10;;;7.70;71.20;;;;;;5036474;28;20180;-81
2021/10/17 06:39:37;;;;;;;18.83;16.90;;;7.70;70.90;;;;;;5036820;28;20207;-81
2021/10/17 06:42:03;;;;;;;17.73;16.10;;;7.70;71.00;;;;;;5036482;28;20930;-82
2021/10/17 06:44:29;;;;;;;19.10;17.40;;;7.70;71.60;;;;;;5036569;28;20446;-82
2021/10/17 06:46:54;;;;;;;18.43;16.73;;;7.70;70.70;;;;;;5036322;28;20469;-81
2021/10/17 06:49:20;;;;;;;18.97;17.13;;;7.70;70.30;;;;;;5036538;28;20176;-80
2021/10/17 06:51:46;;;;;;;16.55;14.60;;;7.90;71.80;;;;;;5035424;28;20538;-80
2021/10/17 06:54:12;;;;;;;18.27;16.63;;;8.10;69.00;;;;;;5036322;28;20326;-80
2021/10/17 06:56:38;;;;;;;18.37;16.67;;;8.00;69.20;;;;;;5036159;28;20426;-80
2021/10/17 06:59:04;;;;;;;20.27;18.37;;;8.00;70.40;;;;;;5036128;28;20182;-80
2021/10/17 07:01:30;;;;;;;19.37;17.57;;;7.90;69.20;;;;;;5036056;28;20210;-80
2021/10/17 07:03:55;;;;;;;18.60;16.73;;;8.00;69.20;;;;;;5036117;28;20506;-80
2021/10/17 07:06:21;;;;;;;19.50;17.53;;;8.00;70.40;;;;;;5035957;28;20172;-79
2021/10/17 07:08:47;;;;;;;17.77;16.07;;;8.00;68.40;;;;;;5035778;28;20187;-80
2021/10/17 07:11:12;;;;;;;20.23;18.33;;;8.00;68.00;;;;;;5036299;28;20274;-79
2021/10/17 07:13:38;;;;;;;18.40;16.80;;;7.90;69.10;;;;;;5035703;28;20640;-80
2021/10/17 07:16:04;;;;;;;20.13;18.33;;;8.00;69.30;;;;;;5035954;28;20230;-81
2021/10/17 07:18:30;;;;;;;20.60;18.80;;;7.90;69.30;;;;;;5051160;28;20930;-80
2021/10/17 07:20:56;;;;;;;18.43;16.60;;;7.80;68.70;;;;;;5035957;28;20183;-80
2021/10/17 07:23:21;;;;;;;15.93;14.43;;;7.80;67.70;;;;;;5035525;28;20631;-80
2021/10/17 07:25:47;;;;;;;18.07;16.27;;;7.70;69.50;;;;;;5053754;28;20446;-80
2021/10/17 07:28:13;;;;;;;18.87;16.97;;;7.50;70.80;;;;;;5037646;28;20182;-79
2021/10/17 07:30:38;;;;;;;17.70;15.90;;;7.60;71.50;;;;;;5054896;28;20168;-78
2021/10/17 07:33:04;;;;;;;18.77;17.00;;;7.60;70.60;;;;;;5035775;28;20195;-79
2021/10/17 07:35:30;;;;;;;19.17;17.40;;;7.50;70.70;;;;;;5052486;28;20265;-80
2021/10/17 07:37:57;;;;;;;19.83;17.90;;;7.80;71.50;;;;;;5035625;28;20429;-80
2021/10/17 07:40:25;;;;;;;18.10;16.30;;;7.70;70.10;;;;;;5035580;28;20429;-80
2021/10/17 07:42:51;;;;;;;18.90;17.03;;;7.60;71.30;;;;;;5035397;28;20754;-80
2021/10/17 07:45:16;;;;;;;18.17;16.37;;;7.70;71.70;;;;;;5035575;28;20753;-80
2021/10/17 07:47:42;;;;;;;18.60;16.80;;;7.70;73.40;;;;;;5035343;28;20631;-80
2021/10/17 07:50:09;;;;;;;20.67;18.70;;;7.80;70.90;;;;;;5035662;28;20179;-80
2021/10/17 07:52:36;;;;;;;20.43;18.33;;;7.80;72.40;;;;;;5035411;28;20190;-81
2021/10/17 07:55:05;;;;;;;22.00;19.73;;;7.90;72.00;;;;;;5035298;28;20429;-80
2021/10/17 07:57:43;;;;;;;24.27;21.77;;;7.90;72.20;;;;;;5035260;28;20844;-80
2021/10/17 08:00:09;;;;;;;22.20;20.10;;;7.90;73.30;;;;;;5035300;28;20418;-80
2021/10/17 08:02:34;;;;;;;19.47;17.43;;;8.00;72.40;;;;;;5035215;28;20465;-80
2021/10/17 08:05:00;;;;;;;18.17;16.47;;;8.00;70.40;;;;;;5035340;28;20448;-80
2021/10/17 08:07:25;;;;;;;19.33;17.53;;;7.90;72.00;;;;;;5053011;28;20179;-79
2021/10/17 08:09:51;;;;;;;18.30;16.50;;;7.90;72.00;;;;;;5035020;28;20449;-80
2021/10/17 08:12:17;;;;;;;18.07;16.47;;;8.00;70.40;;;;;;5034927;28;20683;-80
2021/10/17 08:14:42;;;;;;;16.53;15.03;;;7.90;70.80;;;;;;5053161;28;20643;-81
2021/10/17 08:17:08;;;;;;;18.07;16.20;;;7.80;70.80;;;;;;5034746;28;20238;-80
2021/10/17 08:19:34;;;;;;;19.93;15.67;;;7.80;70.20;;;;;;5035039;28;20366;-80
2021/10/17 08:21:59;;;;;;;17.93;16.20;;;7.70;72.50;;;;;;5035067;28;20561;-79
2021/10/17 08:24:25;;;;;;;18.93;17.13;;;7.60;73.00;;;;;;5035235;28;20566;-80
2021/10/17 08:26:51;;;;;;;17.43;15.83;;;7.60;72.60;;;;;;5034712;28;20190;-80
2021/10/17 08:29:16;;;;;;;19.30;17.43;;;7.60;73.40;;;;;;5051058;28;20183;-80
2021/10/17 08:31:43;;;;;;;18.90;17.17;;;7.70;73.10;;;;;;5052601;28;20175;-81
2021/10/17 08:34:08;;;;;;;17.47;15.83;;;7.90;72.70;;;;;;5034762;28;20545;-81
2021/10/17 08:36:34;;;;;;;19.07;17.27;;;7.80;71.70;;;;;;5035021;28;20516;-80
2021/10/17 08:38:59;;;;;;;19.17;17.30;;;8.00;72.40;;;;;;5035838;28;20186;-79
2021/10/17 08:41:25;;;;;;;19.90;17.90;;;8.00;72.30;;;;;;5052150;28;20172;-80
2021/10/17 08:43:51;;;;;;;20.63;18.53;;;7.90;72.80;;;;;;5034611;28;20176;-80
2021/10/17 08:46:17;;;;;;;21.07;18.87;;;7.90;72.20;;;;;;5034417;28;20309;-80
2021/10/17 08:48:48;;;;;;;20.33;18.40;;;8.00;73.60;;;;;;5034248;28;20179;-80
2021/10/17 08:51:14;;;;;;;20.23;18.33;;;8.10;72.80;;;;;;5034629;28;20850;-80
2021/10/17 08:53:39;;;;;;;21.87;19.87;;;8.20;71.30;;;;;;5034082;28;20454;-79
2021/10/17 08:56:05;;;;;;;22.47;20.07;;;8.30;70.70;;;;;;5034064;28;20586;-80
2021/10/17 08:58:31;;;;;;;20.77;18.57;;;8.40;70.80;;;;;;5033929;28;20176;-79
2021/10/17 09:01:09;;;;;;;22.70;20.17;;;8.40;69.70;;;;;;5034996;28;20202;-82
2021/10/17 09:03:35;;;;;;;20.97;18.97;;;8.40;70.70;;;;;;5034126;28;20298;-82
2021/10/17 09:06:22;;;;;;;21.43;19.23;;;8.40;70.70;;;;;;5034176;28;20505;-84
2021/10/17 09:09:15;;;;;;;20.17;18.07;;;8.50;70.10;;;;;;5034143;28;20175;-84
2021/10/17 09:11:52;;;;;;;20.90;18.90;;;8.50;69.60;;;;;;5034047;28;20479;-85
2021/10/17 09:14:19;;;;;;;20.87;18.80;;;8.30;69.80;;;;;;5034042;28;20430;-85
2021/10/17 09:16:48;;;;;;;21.87;19.67;;;8.40;70.80;;;;;;5033765;28;20430;-82
2021/10/17 09:19:20;;;;;;;21.37;19.43;;;8.40;70.80;;;;;;5033974;28;20456;-82
2021/10/17 09:22:13;;;;;;;21.90;19.73;;;8.40;71.30;;;;;;5051957;28;20497;-82
2021/10/17 09:24:41;;;;;;;25.60;23.10;;;8.50;69.80;;;;;;5031970;28;21140;-81
2021/10/17 09:27:13;;;;;;;23.70;21.20;;;8.40;70.80;;;;;;5034015;28;20429;-82
2021/10/17 09:29:46;;;;;;;20.93;18.70;;;8.50;70.80;;;;;;5034285;28;20443;-81
2021/10/17 09:32:15;;;;;;;19.83;17.93;;;8.60;69.80;;;;;;5034200;28;20411;-82
2021/10/17 09:34:58;;;;;;;22.80;20.50;;;8.60;69.70;;;;;;5034053;28;20766;-81
2021/10/17 09:37:34;;;;;;;20.93;18.83;;;8.60;69.20;;;;;;5033619;28;20760;-82
2021/10/17 09:40:06;;;;;;;23.07;20.87;;;8.70;69.70;;;;;;5034060;28;20422;-81
2021/10/17 09:42:39;;;;;;;21.23;19.13;;;8.90;69.60;;;;;;5037312;28;20458;-82
2021/10/17 09:45:22;;;;;;;19.43;17.60;;;8.90;68.10;;;;;;5037964;28;20418;-85
2021/10/17 09:47:48;;;;;;;19.80;17.70;;;9.10;68.20;;;;;;5037709;28;20922;-85
2021/10/17 09:50:16;;;;;;;19.43;17.57;;;9.20;67.70;;;;;;5037873;28;20421;-85
2021/10/17 09:53:08;;;;;;;21.43;19.23;;;9.10;69.10;;;;;;5037755;28;20423;-85
2021/10/17 09:55:35;;;;;;;19.20;17.23;;;9.10;68.10;;;;;;5037598;28;20782;-85
2021/10/17 09:58:03;;;;;;;22.07;19.97;;;9.20;68.50;;;;;;5037379;28;20421;-85
2021/10/17 10:00:32;;;;;;;20.13;18.10;;;9.10;68.90;;;;;;5037598;28;20717;-85
2021/10/17 10:03:00;;;;;;;20.70;18.50;;;9.00;68.70;;;;;;5037552;28;21037;-85
2021/10/17 10:05:28;;;;;;;22.00;19.90;;;9.00;70.20;;;;;;5037774;28;20414;-84
2021/10/17 10:07:59;;;;;;;23.23;20.70;;;9.00;70.70;;;;;;5037270;28;20414;-85
2021/10/17 10:10:26;;;;;;;21.60;19.50;;;9.10;70.20;;;;;;5037412;28;20817;-85
2021/10/17 10:12:55;;;;;;;23.27;21.13;;;9.20;69.20;;;;;;5036964;28;20799;-85
2021/10/17 10:15:22;;;;;;;22.20;20.10;;;9.20;69.50;;;;;;5037221;28;20762;-84
2021/10/17 10:17:49;;;;;;;21.73;19.53;;;9.20;69.10;;;;;;5037147;28;20414;-85
2021/10/17 10:20:15;;;;;;;20.53;18.50;;;9.30;68.20;;;;;;5037283;28;20437;-86
2021/10/17 10:22:44;;;;;;;22.30;20.20;;;9.20;68.70;;;;;;5037170;28;20442;-85
2021/10/17 10:25:13;;;;;;;22.33;20.10;;;9.10;69.30;;;;;;5037105;28;20178;-85
2021/10/17 10:27:40;;;;;;;22.37;20.17;;;9.10;69.90;;;;;;5036751;28;20419;-85
2021/10/17 10:30:25;;;;;;;23.23;21.03;;;9.20;69.90;;;;;;5036980;28;20406;-85
2021/10/17 10:33:12;;;;;;;24.07;21.67;;;9.20;68.80;;;;;;5037108;28;20454;-85
2021/10/17 10:36:09;;;;;;;23.53;21.20;;;9.20;69.60;;;;;;5036764;28;20418;-86
2021/10/17 10:39:00;;;;;;;22.40;20.10;;;9.20;69.70;;;;;;5036510;28;20484;-85
2021/10/17 10:41:29;;;;;;;23.90;21.60;;;9.30;68.90;;;;;;5029834;28;20508;-86
2021/10/17 10:44:18;;;;;;;23.80;21.57;;;9.30;69.10;;;;;;5036823;28;20411;-84
2021/10/17 10:46:45;;;;;;;24.97;22.43;;;9.40;68.90;;;;;;5036870;28;20411;-84
2021/10/17 10:49:11;;;;;;;25.13;22.57;;;9.40;69.20;;;;;;5037087;28;20406;-85
2021/10/17 10:51:44;;;;;;;24.37;21.97;;;9.40;69.00;;;;;;5036635;28;20414;-85
2021/10/17 10:54:25;;;;;;;25.03;22.43;;;9.40;67.70;;;;;;5036781;28;20406;-85
2021/10/17 10:56:56;;;;;;;26.93;24.13;;;9.40;68.60;;;;;;5036289;28;20417;-87
2021/10/17 10:59:29;;;;;;;23.57;21.27;;;9.50;68.30;;;;;;5036684;28;20513;-84
2021/10/17 11:02:18;;;;;;;23.43;21.20;;;9.60;68.00;;;;;;5036223;28;20504;-84
2021/10/17 11:04:47;;;;;;;25.10;22.57;;;9.60;68.70;;;;;;5036404;28;20425;-84
2021/10/17 11:07:34;;;;;;;22.80;20.40;;;9.70;68.40;;;;;;5052607;28;20911;-84
2021/10/17 11:10:22;;;;;;;25.90;23.13;;;9.70;67.50;;;;;;5036161;28;20414;-84
2021/10/17 11:12:52;;;;;;;22.47;19.83;;;9.80;67.50;;;;;;5035966;28;20434;-84
2021/10/17 11:15:20;;;;;;;22.10;19.93;;;9.80;66.90;;;;;;5036212;28;20414;-86
2021/10/17 11:17:57;;;;;;;21.43;19.17;;;9.70;67.20;;;;;;5035829;28;20813;-85
2021/10/17 11:20:28;;;;;;;22.13;19.43;;;9.70;68.60;;;;;;5036056;28;20413;-85
2021/10/17 11:22:55;;;;;;;22.20;20.00;;;9.80;68.20;;;;;;5036067;28;20746;-84
2021/10/17 11:25:23;;;;;;;22.30;20.00;;;9.80;68.00;;;;;;5035936;28;20933;-84
2021/10/17 11:27:50;;;;;;;19.07;17.27;;;9.80;69.00;;;;;;5035383;28;20507;-84
2021/10/17 11:30:20;;;;;;;20.33;18.23;;;9.80;68.50;;;;;;5035969;28;20420;-85
2021/10/17 11:32:46;;;;;;;19.57;17.67;;;9.90;67.00;;;;;;5035625;28;20456;-85
2021/10/17 11:35:11;;;;;;;21.10;18.97;;;9.80;68.50;;;;;;5036257;28;20480;-85
2021/10/17 11:37:37;;;;;;;19.57;17.57;;;9.80;69.50;;;;;;5053567;28;20218;-85
2021/10/17 11:40:06;;;;;;;20.77;18.63;;;9.80;69.30;;;;;;5036092;28;20176;-85
2021/10/17 11:42:48;;;;;;;22.07;19.90;;;9.80;69.20;;;;;;5035699;28;20211;-85
2021/10/17 11:45:28;;;;;;;20.83;18.80;;;9.80;69.20;;;;;;5035643;28;20820;-85
2021/10/17 11:47:56;;;;;;;20.40;18.30;;;9.80;69.60;;;;;;5035420;28;20422;-84
2021/10/17 11:50:34;;;;;;;21.97;19.57;;;9.90;68.90;;;;;;5035781;28;20407;-85
2021/10/17 11:53:13;;;;;;;19.67;17.73;;;9.90;69.10;;;;;;5035380;28;20433;-86
2021/10/17 11:55:46;;;;;;;20.20;17.93;;;9.90;69.70;;;;;;5035239;28;20414;-81
2021/10/17 11:58:18;;;;;;;18.70;16.70;;;9.90;69.40;;;;;;5034871;28;20419;-82
2021/10/17 12:00:52;;;;;;;20.90;18.70;;;10.00;67.90;;;;;;5035155;28;20494;-82
2021/10/17 12:03:19;;;;;;;18.30;16.40;;;10.00;67.80;;;;;;5034444;28;20530;-82
2021/10/17 12:05:46;;;;;;;21.30;19.20;;;10.10;68.10;;;;;;5034929;28;20430;-82
2021/10/17 12:08:26;;;;;;;22.30;20.00;;;10.10;68.10;;;;;;5034637;28;20422;-82
2021/10/17 12:11:01;;;;;;;20.93;18.73;;;10.20;67.90;;;;;;5034929;28;20410;-82
2021/10/17 12:13:28;;;;;;;22.37;20.07;;;10.10;67.00;;;;;;5034517;28;20798;-82
2021/10/17 12:16:08;;;;;;;22.53;20.13;;;10.10;67.90;;;;;;5034898;28;20480;-82
2021/10/17 12:18:39;;;;;;;22.40;20.17;;;10.10;68.00;;;;;;5034591;28;20517;-81
2021/10/17 12:21:05;;;;;;;21.80;19.70;;;10.20;68.50;;;;;;5034909;28;20934;-82
2021/10/17 12:23:31;;;;;;;22.67;20.47;;;10.20;67.60;;;;;;5034560;28;20465;-81
2021/10/17 12:25:57;;;;;;;21.00;18.90;;;10.20;67.30;;;;;;5034757;28;20180;-82
2021/10/17 12:28:22;;;;;;;22.70;20.40;;;10.20;67.10;;;;;;5034316;28;20175;-82
2021/10/17 12:30:50;;;;;;;21.00;18.60;;;10.30;65.90;;;;;;5034616;28;20180;-82
2021/10/17 12:33:26;;;;;;;22.97;20.10;;;10.40;66.70;;;;;;5034518;28;20717;-82
2021/10/17 12:35:52;;;;;;;21.47;19.17;;;10.40;66.50;;;;;;5034572;28;20770;-82
2021/10/17 12:38:18;;;;;;;24.00;21.50;;;10.30;66.40;;;;;;5033812;28;20415;-82
2021/10/17 12:41:00;;;;;;;23.60;21.10;;;10.30;66.80;;;;;;5034305;28;20463;-82